Time;durP1;ratioP1;P1;durP2;ratioP2;P2;SDS_P1;SDS_P2;PMS_P1;PMS_P2;Temp;Humidity;BMP_temperature;BMP_pressure;BME280_temperature;BME280_humidity;BME280_pressure;Samples;Min_cycle;Max_cycle;Signal;HPM_P1;HPM_P2
2023/04/23 00:01:02;;;;;;;40.53;24.00;;;;;;;9.10;100.00;99849.13;5072714;28;20032;-77
2023/04/23 00:03:31;;;;;;;43.65;23.05;;;;;;;9.02;100.00;99847.97;5073293;28;20059;-77
2023/04/23 00:05:58;;;;;;;39.42;21.38;;;;;;;8.95;100.00;99853.28;5073154;28;20025;-77
2023/04/23 00:08:24;;;;;;;33.03;20.80;;;;;;;8.86;100.00;99850.53;5072531;28;20021;-76
2023/04/23 00:10:50;;;;;;;42.65;22.98;;;;;;;8.82;100.00;99845.81;5076368;28;20031;-78
2023/04/23 00:13:16;;;;;;;38.22;21.67;;;;;;;8.79;100.00;99841.13;5058837;28;20024;-78
2023/04/23 00:15:41;;;;;;;38.38;22.48;;;;;;;8.70;100.00;99849.78;5076758;28;20024;-78
2023/04/23 00:18:07;;;;;;;37.67;22.15;;;;;;;8.68;100.00;99840.13;5076553;28;20021;-76
2023/04/23 00:20:34;;;;;;;37.63;22.60;;;;;;;8.62;100.00;99842.88;5076560;28;20051;-78
2023/04/23 00:23:00;;;;;;;40.65;22.23;;;;;;;8.62;100.00;99847.78;5076588;28;20107;-77
2023/04/23 00:25:25;;;;;;;41.47;23.73;;;;;;;8.53;100.00;99842.19;5076516;28;20059;-76
2023/04/23 00:27:50;;;;;;;41.03;23.73;;;;;;;8.55;100.00;99845.34;5076909;28;20032;-77
2023/04/23 00:30:17;;;;;;;38.42;22.55;;;;;;;8.49;100.00;99830.22;5076448;28;20028;-76
2023/04/23 00:32:43;;;;;;;36.83;22.38;;;;;;;8.57;100.00;99834.22;5076348;28;20020;-76
2023/04/23 00:35:09;;;;;;;40.58;22.45;;;;;;;8.49;100.00;99831.00;5076296;28;20109;-77
2023/04/23 00:37:34;;;;;;;42.53;22.30;;;;;;;8.51;100.00;99844.75;5076441;28;20020;-77
2023/04/23 00:40:01;;;;;;;38.10;23.35;;;;;;;8.45;100.00;99835.31;5076402;28;20396;-77
2023/04/23 00:42:27;;;;;;;38.75;23.63;;;;;;;8.42;100.00;99825.69;5076345;28;20020;-79
2023/04/23 00:44:52;;;;;;;41.50;22.65;;;;;;;8.41;100.00;99832.63;5076100;28;20016;-78
2023/04/23 00:47:19;;;;;;;33.92;20.83;;;;;;;8.42;100.00;99824.88;5076370;28;20028;-78
2023/04/23 00:49:45;;;;;;;39.33;21.63;;;;;;;8.43;100.00;99830.09;5074920;28;20028;-79
2023/04/23 00:52:10;;;;;;;49.33;23.05;;;;;;;8.44;100.00;99817.44;5076226;28;20051;-77
2023/04/23 00:54:36;;;;;;;37.97;22.98;;;;;;;8.45;100.00;99826.78;5075566;28;20474;-78
2023/04/23 00:57:02;;;;;;;34.83;21.15;;;;;;;8.37;100.00;99820.66;5075877;28;20052;-77
2023/04/23 00:59:28;;;;;;;39.70;21.50;;;;;;;8.39;100.00;99820.97;5074745;28;20027;-77
2023/04/23 01:01:54;;;;;;;41.42;23.25;;;;;;;8.35;100.00;99823.22;5076140;28;20036;-76
2023/04/23 01:04:21;;;;;;;40.50;22.20;;;;;;;8.30;100.00;99812.53;5074710;28;20063;-77
2023/04/23 01:06:47;;;;;;;36.17;22.02;;;;;;;8.29;100.00;99828.81;5074369;28;20021;-76
2023/04/23 01:09:12;;;;;;;33.10;20.27;;;;;;;8.27;100.00;99825.66;5074870;28;20525;-75
2023/04/23 01:11:39;;;;;;;36.05;21.40;;;;;;;8.25;100.00;99828.22;5074373;28;20090;-76
2023/04/23 01:14:05;;;;;;;35.80;20.20;;;;;;;8.24;100.00;99831.56;5074517;28;20031;-77
2023/04/23 01:16:31;;;;;;;38.38;21.77;;;;;;;8.20;100.00;99834.59;5075766;28;20119;-76
2023/04/23 01:18:57;;;;;;;36.05;21.20;;;;;;;8.15;100.00;99835.25;5075633;28;20082;-76
2023/04/23 01:21:22;;;;;;;39.08;21.70;;;;;;;8.12;100.00;99829.72;5073562;28;20028;-77
2023/04/23 01:23:48;;;;;;;39.75;21.42;;;;;;;8.08;100.00;99821.38;5075583;28;20052;-78
2023/04/23 01:26:14;;;;;;;37.72;21.83;;;;;;;8.04;100.00;99831.38;5075615;28;20059;-76
2023/04/23 01:28:40;;;;;;;40.13;22.60;;;;;;;7.98;100.00;99823.53;5075693;28;20048;-77
2023/04/23 01:31:06;;;;;;;33.65;19.70;;;;;;;7.94;100.00;99827.84;5074167;28;20036;-77
2023/04/23 01:33:32;;;;;;;36.50;19.85;;;;;;;7.90;100.00;99818.72;5075309;28;20029;-77
2023/04/23 01:35:57;;;;;;;35.72;21.10;;;;;;;7.85;100.00;99819.38;5074946;28;20119;-78
2023/04/23 01:38:24;;;;;;;38.00;20.20;;;;;;;7.82;100.00;99817.50;5072355;28;20048;-75
2023/04/23 01:40:50;;;;;;;38.72;21.63;;;;;;;7.80;100.00;99815.16;5071747;28;20385;-75
2023/04/23 01:43:16;;;;;;;33.13;20.35;;;;;;;7.76;100.00;99813.75;5072988;28;20032;-75
2023/04/23 01:45:41;;;;;;;36.03;20.17;;;;;;;7.71;100.00;99814.44;5073192;28;20028;-76
2023/04/23 01:48:06;;;;;;;33.13;18.73;;;;;;;7.67;100.00;99816.69;5071734;28;20353;-75
2023/04/23 01:50:32;;;;;;;43.88;20.95;;;;;;;7.60;100.00;99806.44;5072853;28;20107;-76
2023/04/23 01:52:58;;;;;;;31.35;20.13;;;;;;;7.59;100.00;99815.47;5072706;28;20044;-77
2023/04/23 01:55:23;;;;;;;34.67;20.90;;;;;;;7.53;100.00;99799.06;5073222;28;20103;-77
2023/04/23 01:57:50;;;;;;;37.15;19.17;;;;;;;7.59;100.00;99802.03;5055514;28;20059;-76
2023/04/23 02:00:16;;;;;;;34.53;20.55;;;;;;;7.56;100.00;99799.38;5073818;28;20439;-75
2023/04/23 02:02:42;;;;;;;34.63;20.40;;;;;;;7.57;100.00;99806.66;5073228;28;20036;-77
2023/04/23 02:05:11;;;;;;;33.83;19.35;;;;;;;7.55;100.00;99801.44;5072909;28;20077;-79
2023/04/23 02:07:37;;;;;;;37.88;20.05;;;;;;;7.53;100.00;99799.06;5073411;28;20075;-77
2023/04/23 02:10:03;;;;;;;33.72;19.20;;;;;;;7.50;100.00;99802.88;5074855;28;20048;-77
2023/04/23 02:12:28;;;;;;;28.73;16.95;;;;;;;7.51;100.00;99800.84;5074579;28;20024;-77
2023/04/23 02:14:54;;;;;;;30.50;18.40;;;;;;;7.43;100.00;99797.56;5074559;28;20043;-77
2023/04/23 02:17:21;;;;;;;26.42;16.90;;;;;;;7.44;100.00;99806.88;5073457;28;20029;-77
2023/04/23 02:19:47;;;;;;;34.67;20.55;;;;;;;7.45;100.00;99809.25;5074424;28;20052;-78
2023/04/23 02:22:13;;;;;;;35.92;19.35;;;;;;;7.53;100.00;99801.13;5074388;28;20052;-78
2023/04/23 02:24:40;;;;;;;36.20;18.10;;;;;;;7.54;100.00;99800.66;5072982;28;20136;-77
2023/04/23 02:27:06;;;;;;;32.45;19.35;;;;;;;7.53;100.00;99801.91;5074186;28;20028;-77
2023/04/23 02:29:31;;;;;;;33.47;19.45;;;;;;;7.49;100.00;99798.47;5074251;28;20028;-77
2023/04/23 02:31:57;;;;;;;27.17;17.35;;;;;;;7.50;100.00;99799.25;5074227;28;20078;-77
2023/04/23 02:34:22;;;;;;;31.85;18.10;;;;;;;7.48;100.00;99790.41;5071845;28;20024;-78
2023/04/23 02:36:48;;;;;;;33.33;17.95;;;;;;;7.45;100.00;99794.25;5073446;28;20078;-78
2023/04/23 02:39:13;;;;;;;30.55;18.52;;;;;;;7.43;100.00;99791.09;5071605;28;20036;-76
2023/04/23 02:41:39;;;;;;;31.20;18.48;;;;;;;7.42;100.00;99798.06;5074135;28;20016;-77
2023/04/23 02:44:04;;;;;;;31.88;18.70;;;;;;;7.40;100.00;99794.91;5073814;28;20033;-79
2023/04/23 02:46:30;;;;;;;29.02;18.42;;;;;;;7.33;100.00;99787.50;5073924;28;20104;-79
2023/04/23 02:48:56;;;;;;;34.80;18.65;;;;;;;7.36;100.00;99795.09;5072811;28;20048;-77
2023/04/23 02:51:21;;;;;;;34.35;18.98;;;;;;;7.33;100.00;99796.03;5074163;28;20162;-79
2023/04/23 02:53:47;;;;;;;39.67;20.88;;;;;;;7.26;100.00;99785.06;5073809;28;20052;-77
2023/04/23 02:56:12;;;;;;;34.75;18.15;;;;;;;7.28;100.00;99798.75;5074515;28;20020;-78
2023/04/23 02:58:37;;;;;;;33.60;19.08;;;;;;;7.27;100.00;99795.16;5072580;28;20462;-77
2023/04/23 03:01:04;;;;;;;30.63;16.75;;;;;;;7.22;100.00;99790.13;5073820;28;20036;-79
2023/04/23 03:03:30;;;;;;;31.25;18.48;;;;;;;7.20;100.00;99794.72;5073543;28;20031;-78
2023/04/23 03:05:56;;;;;;;34.05;19.30;;;;;;;7.19;100.00;99791.06;5073671;28;20021;-77
2023/04/23 03:08:22;;;;;;;28.05;18.08;;;;;;;7.20;100.00;99795.50;5073694;28;20032;-77
2023/04/23 03:10:47;;;;;;;31.55;18.85;;;;;;;7.16;100.00;99797.72;5073627;28;20213;-77
2023/04/23 03:13:13;;;;;;;32.50;19.23;;;;;;;7.17;100.00;99799.31;5073593;28;20484;-78
2023/04/23 03:15:39;;;;;;;31.55;17.58;;;;;;;7.12;100.00;99797.13;5073446;28;20433;-78
2023/04/23 03:18:07;;;;;;;30.70;18.45;;;;;;;7.06;100.00;99794.16;5073371;28;20028;-77
2023/04/23 03:20:33;;;;;;;33.15;18.27;;;;;;;7.07;100.00;99798.56;5073701;28;20024;-78
2023/04/23 03:22:58;;;;;;;31.88;17.98;;;;;;;7.07;100.00;99798.56;5055650;28;20123;-78
2023/04/23 03:25:24;;;;;;;30.95;18.42;;;;;;;7.04;100.00;99793.06;5073489;28;20021;-79
2023/04/23 03:27:51;;;;;;;29.67;17.83;;;;;;;7.01;100.00;99791.97;5072505;28;20448;-78
2023/04/23 03:30:16;;;;;;;31.60;17.33;;;;;;;6.95;100.00;99788.22;5055391;28;20043;-78
2023/04/23 03:32:42;;;;;;;32.05;17.95;;;;;;;6.97;100.00;99787.75;5073115;28;20111;-79
2023/04/23 03:35:08;;;;;;;31.33;18.92;;;;;;;6.97;100.00;99790.56;5073524;28;20059;-78
2023/04/23 03:37:34;;;;;;;34.83;18.63;;;;;;;6.97;100.00;99790.56;5073549;28;20017;-78
2023/04/23 03:40:02;;;;;;;31.58;18.67;;;;;;;6.98;100.00;99784.41;5073462;28;20017;-77
2023/04/23 03:42:27;;;;;;;31.50;18.23;;;;;;;6.99;100.00;99783.13;5073156;28;20453;-77
2023/04/23 03:44:53;;;;;;;37.55;18.02;;;;;;;6.99;100.00;99779.50;5071727;28;20052;-76
2023/04/23 03:47:18;;;;;;;27.27;17.83;;;;;;;6.97;100.00;99779.22;5072986;28;20056;-78
2023/04/23 03:49:44;;;;;;;31.60;18.33;;;;;;;6.97;100.00;99782.84;5055778;28;20063;-78
2023/04/23 03:52:09;;;;;;;33.33;17.15;;;;;;;6.96;100.00;99786.16;5073219;28;20036;-77
2023/04/23 03:54:35;;;;;;;32.00;17.35;;;;;;;6.99;100.00;99783.13;5072708;28;20151;-78
2023/04/23 03:57:00;;;;;;;28.33;17.83;;;;;;;7.04;100.00;99781.69;5071722;28;20474;-77
2023/04/23 03:59:26;;;;;;;34.28;17.35;;;;;;;7.04;100.00;99784.53;5072978;28;20044;-78
2023/04/23 04:01:51;;;;;;;31.77;17.85;;;;;;;7.06;100.00;99787.69;5072988;28;20033;-77
2023/04/23 04:04:17;;;;;;;31.63;17.60;;;;;;;6.97;100.00;99782.84;5071804;28;20551;-77
2023/04/23 04:06:42;;;;;;;31.48;18.95;;;;;;;7.05;100.00;99791.78;5072959;28;20028;-77
2023/04/23 04:09:07;;;;;;;32.60;18.23;;;;;;;7.06;100.00;99785.63;5072966;28;20466;-80
2023/04/23 04:11:33;;;;;;;28.65;18.15;;;;;;;7.16;100.00;99792.06;5072917;28;20024;-78
2023/04/23 04:13:59;;;;;;;32.78;17.83;;;;;;;7.20;100.00;99795.50;5073090;28;20056;-77
2023/04/23 04:16:24;;;;;;;29.10;17.63;;;;;;;7.20;100.00;99789.81;5054995;28;20079;-77
2023/04/23 04:18:50;;;;;;;27.90;17.48;;;;;;;7.22;100.00;99781.59;5072921;28;20094;-77
2023/04/23 04:21:17;;;;;;;28.90;17.30;;;;;;;7.26;100.00;99792.78;5072726;28;20123;-78
2023/04/23 04:23:44;;;;;;;29.58;17.02;;;;;;;7.24;100.00;99786.78;5072815;28;20024;-77
2023/04/23 04:26:09;;;;;;;55.47;24.02;;;;;;;7.25;100.00;99780.63;5072768;28;20025;-78
2023/04/23 04:28:36;;;;;;;29.17;18.08;;;;;;;7.27;100.00;99774.47;5072770;28;20385;-77
2023/04/23 04:31:02;;;;;;;30.95;16.67;;;;;;;7.42;100.00;99787.44;5071225;28;20029;-77
2023/04/23 04:33:28;;;;;;;28.55;16.48;;;;;;;7.47;100.00;99786.03;5072628;28;20457;-80
2023/04/23 04:35:55;;;;;;;26.45;15.45;;;;;;;7.47;100.00;99778.25;5072653;28;20033;-77
2023/04/23 04:38:21;;;;;;;25.77;17.38;;;;;;;7.58;100.00;99774.06;5072797;28;20366;-77
2023/04/23 04:40:47;;;;;;;30.02;16.30;;;;;;;7.64;100.00;99781.47;5070933;28;20183;-77
2023/04/23 04:43:15;;;;;;;29.98;15.95;;;;;;;7.72;100.00;99776.97;5072482;28;20587;-78
2023/04/23 04:45:58;;;;;;;29.40;16.60;;;;;;;7.78;100.00;99774.22;5072441;28;20064;-76
2023/04/23 04:48:25;;;;;;;24.00;15.93;;;;;;;7.84;100.00;99772.28;5072287;28;20406;-78
2023/04/23 04:50:51;;;;;;;28.08;17.13;;;;;;;7.90;100.00;99773.19;5072507;28;20045;-78
2023/04/23 04:53:18;;;;;;;29.77;16.35;;;;;;;7.91;100.00;99774.78;5070798;28;20520;-77
2023/04/23 04:55:43;;;;;;;27.10;17.23;;;;;;;7.95;100.00;99773.31;5072627;28;20033;-77
2023/04/23 04:58:09;;;;;;;26.08;15.15;;;;;;;8.10;100.00;99775.38;5075904;28;20035;-76
2023/04/23 05:00:35;;;;;;;26.70;16.00;;;;;;;8.20;100.00;99771.19;5041640;28;20036;-80
2023/04/23 05:03:00;;;;;;;23.88;15.20;;;;;;;8.32;100.00;99773.75;5076317;28;20027;-77
2023/04/23 05:05:26;;;;;;;27.13;13.75;;;;;;;8.42;100.00;99774.44;5075746;28;20036;-78
2023/04/23 05:07:53;;;;;;;25.38;15.50;;;;;;;8.54;100.00;99783.97;5057499;28;20091;-77
2023/04/23 05:10:28;;;;;;;24.30;15.25;;;;;;;8.62;100.00;99777.38;5074052;28;20441;-78
2023/04/23 05:12:57;;;;;;;27.17;16.23;;;;;;;8.71;100.00;99782.16;5074696;28;20036;-78
2023/04/23 05:15:22;;;;;;;29.08;16.30;;;;;;;8.74;100.00;99772.66;5075664;28;20039;-77
2023/04/23 05:17:52;;;;;;;23.77;14.32;;;;;;;8.80;100.00;99777.13;5075789;28;20028;-77
2023/04/23 05:20:19;;;;;;;23.73;14.75;;;;;;;8.89;100.00;99766.94;5075609;28;20024;-77
2023/04/23 05:22:46;;;;;;;29.92;16.27;;;;;;;8.98;100.00;99772.50;5074325;28;20362;-78
2023/04/23 05:25:12;;;;;;;23.10;15.63;;;;;;;9.01;100.00;99769.44;5074192;28;20044;-77
2023/04/23 05:27:39;;;;;;;25.65;14.98;;;;;;;9.15;100.00;99765.00;5075741;28;20029;-77
2023/04/23 05:30:08;;;;;;;29.55;15.55;;;;;;;9.26;100.00;99768.78;5075817;28;20140;-77
2023/04/23 05:32:42;;;;;;;25.95;15.73;;;;;;;9.40;100.00;99764.28;5075742;28;20099;-77
2023/04/23 05:35:08;;;;;;;23.85;15.07;;;;;;;9.46;100.00;99765.16;5074662;28;20128;-79
2023/04/23 05:37:35;;;;;;;22.88;14.98;;;;;;;9.57;100.00;99758.81;5074084;28;20035;-76
2023/04/23 05:40:05;;;;;;;21.00;14.63;;;;;;;9.61;100.00;99760.16;5075866;28;20025;-78
2023/04/23 05:42:41;;;;;;;21.67;14.45;;;;;;;9.69;100.00;99754.81;5075452;28;20028;-77
2023/04/23 05:45:08;;;;;;;19.88;14.00;;;;;;;9.81;100.00;99752.91;5040794;28;20469;-77
2023/04/23 05:47:34;;;;;;;26.35;14.82;;;;;;;9.83;100.00;99759.69;5075633;28;20028;-74
2023/04/23 05:50:18;;;;;;;23.85;14.27;;;;;;;9.99;100.00;99750.50;5072981;28;20041;-73
2023/04/23 05:52:45;;;;;;;25.92;14.63;;;;;;;10.11;100.00;99755.06;5074082;28;20028;-74
2023/04/23 05:55:10;;;;;;;23.20;13.70;;;;;;;10.29;100.00;99753.94;5073801;28;20077;-74
2023/04/23 05:57:37;;;;;;;24.25;13.50;;;;;;;10.45;100.00;99755.38;5074772;28;20032;-74
2023/04/23 06:00:05;;;;;;;18.45;13.00;;;;;;;10.58;100.00;99747.16;5073729;28;20102;-76
2023/04/23 06:02:32;;;;;;;21.90;13.90;;;;;;;10.70;100.00;99754.56;5075112;28;20032;-74
2023/04/23 06:04:58;;;;;;;23.35;13.65;;;;;;;10.84;100.00;99752.84;5073464;28;20044;-77
2023/04/23 06:07:25;;;;;;;24.25;13.73;;;;;;;10.87;100.00;99749.78;5056579;28;20036;-75
2023/04/23 06:09:51;;;;;;;23.00;13.95;;;;;;;10.99;100.00;99751.41;5074801;28;20071;-76
2023/04/23 06:12:17;;;;;;;21.60;14.10;;;;;;;11.08;100.00;99758.97;5073255;28;20044;-79
2023/04/23 06:14:42;;;;;;;23.63;13.80;;;;;;;11.21;100.00;99756.53;5073533;28;20032;-78
2023/04/23 06:17:09;;;;;;;24.00;13.93;;;;;;;11.40;100.00;99754.81;5058041;28;20430;-78
2023/04/23 06:19:36;;;;;;;22.95;14.60;;;;;;;11.58;100.00;99750.72;5075118;28;20466;-79
2023/04/23 06:22:03;;;;;;;24.58;14.27;;;;;;;11.72;100.00;99755.44;5074485;28;20047;-79
2023/04/23 06:24:29;;;;;;;22.15;15.23;;;;;;;11.87;100.00;99763.03;5074587;28;20036;-82
2023/04/23 06:26:56;;;;;;;25.30;14.73;;;;;;;12.00;100.00;99754.78;5075572;28;20177;-80
2023/04/23 06:29:24;;;;;;;24.90;16.08;;;;;;;12.15;100.00;99761.84;5074190;28;20036;-78
2023/04/23 06:31:53;;;;;;;27.23;15.65;;;;;;;12.32;100.00;99753.28;5074546;28;20035;-76
2023/04/23 06:34:19;;;;;;;27.92;16.48;;;;;;;12.52;100.00;99749.41;5074939;28;20033;-76
2023/04/23 06:36:45;;;;;;;22.13;13.77;;;;;;;13.90;100.00;99736.88;5074453;28;20040;-78
2023/04/23 06:39:11;;;;;;;20.30;12.90;;;;;;;16.70;100.00;99750.69;5074163;28;20371;-78
2023/04/23 06:41:39;;;;;;;18.17;12.13;;;;;;;19.67;91.71;99750.16;5074015;28;20044;-77
2023/04/23 06:44:06;;;;;;;17.67;11.02;;;;;;;22.27;66.72;99759.47;5074222;28;20162;-75
2023/04/23 06:46:33;;;;;;;15.93;11.50;;;;;;;24.30;54.65;99759.78;5074249;28;20054;-75
2023/04/23 06:48:59;;;;;;;14.32;9.98;;;;;;;26.11;46.09;99759.03;5074384;28;20025;-75
2023/04/23 06:51:28;;;;;;;17.67;10.30;;;;;;;27.58;40.14;99756.63;5074286;28;20035;-71
2023/04/23 06:53:54;;;;;;;17.65;10.80;;;;;;;29.12;37.83;99749.44;5071970;28;20048;-74
2023/04/23 06:56:28;;;;;;;15.30;10.23;;;;;;;30.28;32.45;99748.53;5073771;28;20025;-73
2023/04/23 06:58:55;;;;;;;16.05;10.98;;;;;;;30.87;31.78;99747.59;5073705;28;20032;-73
2023/04/23 07:01:21;;;;;;;15.90;9.88;;;;;;;31.83;31.07;99741.84;5074206;28;20036;-75
2023/04/23 07:03:50;;;;;;;12.45;9.90;;;;;;;32.69;28.90;99735.94;5073803;28;20047;-77
2023/04/23 07:06:15;;;;;;;11.35;8.77;;;;;;;33.26;27.31;99721.69;5073835;28;20037;-72
2023/04/23 07:08:43;;;;;;;14.73;9.65;;;;;;;33.28;26.45;99718.03;5073562;28;20034;-77
2023/04/23 07:11:11;;;;;;;12.90;8.68;;;;;;;33.65;26.13;99718.28;5072537;28;20078;-78
2023/04/23 07:13:38;;;;;;;15.35;8.90;;;;;;;33.99;26.10;99712.38;5073278;28;20473;-79
2023/04/23 07:16:04;;;;;;;11.73;8.57;;;;;;;34.72;25.64;99708.13;5073906;28;20203;-76
2023/04/23 07:18:31;;;;;;;16.00;8.82;;;;;;;34.94;24.46;99711.25;5073683;28;20485;-80
2023/04/23 07:20:56;;;;;;;13.23;9.82;;;;;;;35.41;24.08;99701.94;5072064;28;20119;-77
2023/04/23 07:23:23;;;;;;;12.00;8.48;;;;;;;35.96;23.81;99700.97;5073941;28;20052;-74
2023/04/23 07:25:49;;;;;;;10.93;8.48;;;;;;;36.40;22.79;99693.59;5069898;28;20043;-74
2023/04/23 07:28:14;;;;;;;11.10;8.68;;;;;;;36.56;23.05;99687.47;5067987;28;20453;-74
2023/04/23 07:30:39;;;;;;;11.63;9.10;;;;;;;36.88;22.60;99688.50;5069494;28;20048;-74
2023/04/23 07:33:05;;;;;;;13.07;8.38;;;;;;;37.34;22.44;99684.69;5069471;28;20111;-75
2023/04/23 07:35:30;;;;;;;8.32;7.45;;;;;;;37.13;21.25;99689.25;5069266;28;20029;-74
2023/04/23 07:37:56;;;;;;;11.45;7.15;;;;;;;36.79;21.87;99688.94;5069454;28;20101;-76
2023/04/23 07:40:22;;;;;;;11.07;7.15;;;;;;;36.88;21.85;99681.78;5070142;28;20529;-75
2023/04/23 07:42:47;;;;;;;9.25;7.07;;;;;;;37.37;21.33;99678.13;5071261;28;20033;-74
2023/04/23 07:45:13;;;;;;;8.13;6.85;;;;;;;37.41;21.66;99672.25;5069930;28;20028;-74
2023/04/23 07:47:38;;;;;;;11.43;6.68;;;;;;;37.70;20.94;99671.59;5071162;28;20021;-73
2023/04/23 07:50:04;;;;;;;9.13;6.18;;;;;;;37.71;20.82;99667.16;5071185;28;20028;-75
2023/04/23 07:52:30;;;;;;;9.30;5.90;;;;;;;36.92;21.05;99678.97;5072106;28;20020;-73
2023/04/23 07:54:55;;;;;;;11.10;5.97;;;;;;;36.65;20.84;99676.56;5071882;28;20477;-77
2023/04/23 07:57:20;;;;;;;6.95;5.93;;;;;;;36.70;21.60;99672.25;5073154;28;20024;-75
2023/04/23 07:59:46;;;;;;;9.18;5.95;;;;;;;37.54;20.75;99680.09;5073462;28;20067;-75
2023/04/23 08:02:11;;;;;;;6.88;6.05;;;;;;;37.70;20.24;99664.88;5073190;28;20028;-74
2023/04/23 08:04:37;;;;;;;10.65;5.32;;;;;;;37.24;20.36;99665.03;5071932;28;20099;-73
2023/04/23 08:07:02;;;;;;;9.43;5.53;;;;;;;36.86;21.05;99664.59;5073306;28;20020;-74
2023/04/23 08:09:27;;;;;;;6.50;5.10;;;;;;;37.08;21.05;99667.50;5073019;28;20167;-76
2023/04/23 08:11:54;;;;;;;8.68;5.80;;;;;;;36.90;20.95;99660.25;5072669;28;20458;-74
2023/04/23 08:14:19;;;;;;;6.93;5.28;;;;;;;36.87;21.46;99662.38;5071611;28;20036;-74
2023/04/23 08:16:44;;;;;;;11.18;5.95;;;;;;;35.27;22.33;99650.88;5073065;28;20412;-76
2023/04/23 08:19:10;;;;;;;6.07;5.13;;;;;;;35.40;22.98;99667.69;5073087;28;20476;-75
2023/04/23 08:21:36;;;;;;;10.98;5.68;;;;;;;34.74;23.56;99654.78;5072908;28;20032;-77
2023/04/23 08:24:02;;;;;;;6.63;4.72;;;;;;;34.81;23.22;99658.72;5072896;28;20032;-73
2023/04/23 08:26:27;;;;;;;9.02;5.30;;;;;;;34.94;22.63;99654.81;5071427;28;20024;-74
2023/04/23 08:28:53;;;;;;;11.45;4.85;;;;;;;34.99;22.73;99646.81;5071767;28;20033;-75
2023/04/23 08:31:20;;;;;;;10.45;5.68;;;;;;;34.89;23.10;99650.16;5072292;28;20020;-74
2023/04/23 08:33:45;;;;;;;5.65;4.78;;;;;;;34.88;23.12;99639.72;5076718;28;20418;-74
2023/04/23 08:36:11;;;;;;;6.20;4.40;;;;;;;35.28;22.53;99633.81;5076763;28;20125;-75
2023/04/23 08:38:36;;;;;;;6.03;4.13;;;;;;;35.45;22.73;99644.84;5076600;28;20021;-74
2023/04/23 08:41:04;;;;;;;7.50;4.35;;;;;;;34.95;23.19;99628.84;5076715;28;20077;-74
2023/04/23 08:43:37;;;;;;;7.45;4.47;;;;;;;35.14;23.23;99625.13;5076757;28;20089;-75
2023/04/23 08:46:03;;;;;;;12.05;4.47;;;;;;;34.65;23.60;99628.41;5075512;28;20473;-75
2023/04/23 08:48:29;;;;;;;9.75;4.03;;;;;;;34.87;23.06;99625.53;5058591;28;20031;-75
2023/04/23 08:50:56;;;;;;;9.18;4.22;;;;;;;34.44;22.60;99626.81;5076426;28;20025;-74
2023/04/23 08:53:24;;;;;;;7.78;4.60;;;;;;;33.24;23.67;99617.91;5058188;28;20082;-73
2023/04/23 08:55:50;;;;;;;4.35;3.90;;;;;;;31.90;25.25;99615.78;5058382;28;20023;-73
2023/04/23 08:58:16;;;;;;;8.13;3.72;;;;;;;30.78;26.35;99623.84;5058236;28;20020;-75
2023/04/23 09:00:41;;;;;;;8.38;4.40;;;;;;;29.64;28.13;99617.25;5075090;28;20033;-75
2023/04/23 09:03:07;;;;;;;5.00;4.22;;;;;;;28.79;29.53;99614.16;5076131;28;20027;-77
2023/04/23 09:05:32;;;;;;;10.13;3.90;;;;;;;28.75;29.39;99623.50;5074980;28;20027;-74
2023/04/23 09:08:01;;;;;;;8.95;4.32;;;;;;;29.04;28.97;99620.19;5075852;28;20012;-75
2023/04/23 09:10:27;;;;;;;8.25;4.13;;;;;;;29.27;28.64;99622.34;5074813;28;20039;-75
2023/04/23 09:12:53;;;;;;;5.47;3.35;;;;;;;29.54;28.31;99624.69;5076500;28;20029;-74
2023/04/23 09:15:18;;;;;;;5.38;3.97;;;;;;;29.14;28.29;99620.03;5076499;28;20103;-73
2023/04/23 09:17:45;;;;;;;7.78;3.60;;;;;;;28.98;28.03;99633.72;5074690;28;20031;-73
2023/04/23 09:20:12;;;;;;;6.38;3.83;;;;;;;27.99;29.03;99625.88;5076232;28;20024;-73
2023/04/23 09:22:42;;;;;;;4.85;3.15;;;;;;;26.81;31.42;99630.09;5075747;28;20373;-74
2023/04/23 09:25:09;;;;;;;9.45;4.05;;;;;;;26.07;31.53;99638.59;5075920;28;20032;-74
2023/04/23 09:27:35;;;;;;;6.45;3.65;;;;;;;25.32;31.80;99638.72;5076233;28;20465;-74
2023/04/23 09:30:07;;;;;;;6.22;3.70;;;;;;;25.01;32.96;99641.44;5076031;28;20028;-75
2023/04/23 09:32:33;;;;;;;;;;;;;;;24.72;34.21;99642.69;5076068;28;20099;-75
2023/04/23 09:35:01;;;;;;;7.07;3.95;;;;;;;25.02;34.09;99648.81;5075765;28;20327;-75
2023/04/23 09:37:27;;;;;;;9.57;3.90;;;;;;;25.45;33.78;99637.50;5075495;28;20028;-77
2023/04/23 09:39:55;;;;;;;5.32;3.47;;;;;;;25.23;34.09;99621.94;5075551;28;20077;-76
2023/04/23 09:42:22;;;;;;;7.97;3.50;;;;;;;25.27;34.24;99641.94;5075005;28;20032;-80
2023/04/23 09:44:59;;;;;;;7.72;3.38;;;;;;;25.24;34.82;99632.22;5075513;28;20056;-81
2023/04/23 09:47:25;;;;;;;5.20;3.55;;;;;;;24.93;35.22;99626.19;5074411;28;20077;-79
2023/04/23 09:49:50;;;;;;;7.88;3.72;;;;;;;24.54;35.47;99630.31;5075288;28;20032;-79
2023/04/23 09:52:17;;;;;;;5.35;4.13;;;;;;;24.07;35.30;99637.38;5073954;28;20024;-80
2023/04/23 09:54:45;;;;;;;4.22;3.42;;;;;;;23.57;37.78;99634.69;5073693;28;20512;-76
2023/04/23 09:57:10;;;;;;;4.50;3.53;;;;;;;23.42;37.73;99634.84;5074884;28;20382;-75
2023/04/23 09:59:36;;;;;;;6.05;3.40;;;;;;;23.57;38.24;99633.94;5075032;28;20021;-76
2023/04/23 10:02:06;;;;;;;7.57;3.60;;;;;;;23.34;38.20;99631.25;5073873;28;20024;-77
2023/04/23 10:04:32;;;;;;;5.97;4.13;;;;;;;23.18;38.83;99633.53;5074942;28;20026;-77
2023/04/23 10:07:02;;;;;;;8.95;3.85;;;;;;;22.96;40.16;99625.81;5074262;28;20381;-76
2023/04/23 10:09:28;;;;;;;4.60;4.15;;;;;;;22.99;40.48;99636.25;5074888;28;20033;-77
2023/04/23 10:11:55;;;;;;;6.15;4.10;;;;;;;22.85;40.31;99637.91;5074694;28;20086;-76
2023/04/23 10:14:22;;;;;;;9.43;4.47;;;;;;;22.81;41.70;99640.47;5056694;28;20028;-75
2023/04/23 10:16:51;;;;;;;7.65;3.78;;;;;;;22.65;42.05;99633.22;5073250;28;20024;-73
2023/04/23 10:19:21;;;;;;;5.55;3.55;;;;;;;22.80;43.24;99628.03;5074630;28;20078;-75
2023/04/23 10:21:50;;;;;;;7.67;3.60;;;;;;;23.04;40.89;99637.38;5074669;28;20035;-75
2023/04/23 10:24:16;;;;;;;5.70;3.25;;;;;;;23.23;39.57;99643.41;5073304;28;20290;-75
2023/04/23 10:26:42;;;;;;;6.70;3.58;;;;;;;23.06;39.78;99625.91;5073411;28;20081;-75
2023/04/23 10:29:13;;;;;;;8.05;3.83;;;;;;;23.00;40.06;99631.97;5073440;28;20036;-75
2023/04/23 10:31:39;;;;;;;9.17;4.10;;;;;;;22.66;40.04;99620.97;5075245;28;20175;-75
2023/04/23 10:34:05;;;;;;;6.07;3.92;;;;;;;22.56;40.99;99628.81;5056391;28;20278;-75
2023/04/23 10:36:32;;;;;;;11.02;4.22;;;;;;;22.53;42.84;99635.81;5072936;28;20061;-77
2023/04/23 10:39:02;;;;;;;11.82;5.13;;;;;;;22.71;42.58;99619.97;5074594;28;20103;-75
2023/04/23 10:41:37;;;;;;;6.18;4.05;;;;;;;22.69;43.32;99624.84;5073369;28;20032;-75
2023/04/23 10:44:04;;;;;;;7.60;4.68;;;;;;;22.58;43.33;99623.16;5056029;28;20037;-76
2023/04/23 10:46:31;;;;;;;9.05;3.95;;;;;;;22.72;43.28;99621.50;5074536;28;20032;-77
2023/04/23 10:49:15;;;;;;;5.88;3.97;;;;;;;22.69;42.81;99621.91;5072757;28;20108;-76
2023/04/23 10:51:42;;;;;;;10.73;4.60;;;;;;;22.72;43.86;99615.66;5073809;28;20024;-77
2023/04/23 10:54:11;;;;;;;4.38;3.58;;;;;;;22.75;42.71;99626.16;5054789;28;20473;-77
2023/04/23 10:56:37;;;;;;;7.07;3.72;;;;;;;22.59;43.64;99618.88;5074050;28;20117;-76
2023/04/23 10:59:20;;;;;;;6.15;3.97;;;;;;;22.77;44.66;99616.78;5073726;28;20048;-78
2023/04/23 11:01:47;;;;;;;5.88;3.40;;;;;;;22.91;43.60;99607.16;5074097;28;20032;-75
2023/04/23 11:04:23;;;;;;;5.10;3.40;;;;;;;23.28;42.92;99610.31;5073971;28;20082;-77
2023/04/23 11:06:48;;;;;;;4.95;3.72;;;;;;;23.31;41.78;99614.94;5073640;28;20524;-76
2023/04/23 11:09:38;;;;;;;6.78;3.83;;;;;;;23.58;41.96;99609.22;5073986;28;20032;-76
2023/04/23 11:12:10;;;;;;;4.95;3.10;;;;;;;23.63;41.81;99605.28;5073814;28;20102;-75
2023/04/23 11:14:45;;;;;;;5.22;3.65;;;;;;;23.60;42.79;99600.66;5073561;28;20437;-76
2023/04/23 11:17:11;;;;;;;4.10;3.15;;;;;;;24.06;42.40;99607.41;5073277;28;20043;-76
2023/04/23 11:19:38;;;;;;;3.85;3.38;;;;;;;24.39;40.90;99610.09;5073867;28;20035;-75